sensor_id;sensor_type;location;lat;lon;timestamp;noise_LAeq;noise_LA_min;noise_LA_max;noise_LA01;noise_LA95
4048;Laerm;2038;51.728;6.674;2022-09-29T00:01:03;42.40;35.94;46.84;;
4048;Laerm;2038;51.728;6.674;2022-09-29T00:03:31;39.72;35.94;46.95;;
4048;Laerm;2038;51.728;6.674;2022-09-29T00:05:57;39.82;36.20;44.31;;
4048;Laerm;2038;51.728;6.674;2022-09-29T00:08:27;39.49;35.66;42.35;;
4048;Laerm;2038;51.728;6.674;2022-09-29T00:10:54;48.98;34.31;65.61;;
4048;Laerm;2038;51.728;6.674;2022-09-29T00:13:21;39.10;34.69;46.10;;
4048;Laerm;2038;51.728;6.674;2022-09-29T00:15:59;38.47;33.90;45.25;;
4048;Laerm;2038;51.728;6.674;2022-09-29T00:18:27;39.00;33.90;43.99;;
4048;Laerm;2038;51.728;6.674;2022-09-29T00:21:06;41.33;35.04;44.95;;
4048;Laerm;2038;51.728;6.674;2022-09-29T00:23:35;39.41;34.69;43.24;;
4048;Laerm;2038;51.728;6.674;2022-09-29T00:28:39;52.66;34.69;70.94;;
4048;Laerm;2038;51.728;6.674;2022-09-29T00:31:09;39.71;35.04;44.35;;
4048;Laerm;2038;51.728;6.674;2022-09-29T00:33:37;38.58;32.93;41.14;;
4048;Laerm;2038;51.728;6.674;2022-09-29T00:36:10;38.76;34.69;43.28;;
4048;Laerm;2038;51.728;6.674;2022-09-29T00:38:38;39.11;33.90;42.82;;
4048;Laerm;2038;51.728;6.674;2022-09-29T00:41:05;40.42;35.31;43.49;;
4048;Laerm;2038;51.728;6.674;2022-09-29T00:47:04;39.29;31.68;42.76;;
4048;Laerm;2038;51.728;6.674;2022-09-29T00:49:43;39.05;34.31;42.47;;
4048;Laerm;2038;51.728;6.674;2022-09-29T00:54:50;39.51;35.04;45.07;;
4048;Laerm;2038;51.728;6.674;2022-09-29T00:57:37;39.77;32.93;43.04;;
4048;Laerm;2038;51.728;6.674;2022-09-29T01:00:11;38.79;33.44;42.16;;
4048;Laerm;2038;51.728;6.674;2022-09-29T01:02:56;43.89;34.69;61.54;;
4048;Laerm;2038;51.728;6.674;2022-09-29T01:05:39;39.95;35.94;43.29;;
4048;Laerm;2038;51.728;6.674;2022-09-29T01:08:34;39.86;35.36;44.62;;
4048;Laerm;2038;51.728;6.674;2022-09-29T01:11:04;39.53;34.69;42.71;;
4048;Laerm;2038;51.728;6.674;2022-09-29T01:13:33;39.26;34.31;49.28;;
4048;Laerm;2038;51.728;6.674;2022-09-29T01:16:00;39.44;34.69;42.22;;
4048;Laerm;2038;51.728;6.674;2022-09-29T01:18:27;39.68;35.04;43.34;;
4048;Laerm;2038;51.728;6.674;2022-09-29T01:37:00;38.73;32.93;50.70;;
4048;Laerm;2038;51.728;6.674;2022-09-29T01:39:38;39.12;33.90;42.71;;
4048;Laerm;2038;51.728;6.674;2022-09-29T01:42:25;39.30;35.04;42.22;;
4048;Laerm;2038;51.728;6.674;2022-09-29T01:45:24;39.18;35.04;41.96;;
4048;Laerm;2038;51.728;6.674;2022-09-29T01:48:05;44.83;36.20;63.00;;
4048;Laerm;2038;51.728;6.674;2022-09-29T01:50:44;39.91;36.45;42.98;;
4048;Laerm;2038;51.728;6.674;2022-09-29T01:53:32;42.27;36.45;45.99;;
4048;Laerm;2038;51.728;6.674;2022-09-29T01:56:10;51.01;35.36;65.32;;
4048;Laerm;2038;51.728;6.674;2022-09-29T01:58:55;46.15;37.12;64.97;;
4048;Laerm;2038;51.728;6.674;2022-09-29T02:01:29;47.03;35.04;65.71;;
4048;Laerm;2038;51.728;6.674;2022-09-29T02:04:18;51.64;35.94;69.33;;
4048;Laerm;2038;51.728;6.674;2022-09-29T02:07:00;39.17;33.90;45.48;;
4048;Laerm;2038;51.728;6.674;2022-09-29T02:09:35;39.70;35.36;45.14;;
4048;Laerm;2038;51.728;6.674;2022-09-29T02:12:07;45.13;34.69;61.98;;
4048;Laerm;2038;51.728;6.674;2022-09-29T02:14:42;40.06;35.36;42.71;;
4048;Laerm;2038;51.728;6.674;2022-09-29T02:17:29;40.13;36.45;44.11;;
4048;Laerm;2038;51.728;6.674;2022-09-29T02:19:56;41.68;36.56;49.57;;
4048;Laerm;2038;51.728;6.674;2022-09-29T02:22:23;54.31;36.45;76.21;;
4048;Laerm;2038;51.728;6.674;2022-09-29T02:24:54;45.10;36.20;63.80;;
4048;Laerm;2038;51.728;6.674;2022-09-29T02:27:25;40.46;36.20;43.63;;
4048;Laerm;2038;51.728;6.674;2022-09-29T02:29:54;41.34;36.45;45.36;;
4048;Laerm;2038;51.728;6.674;2022-09-29T02:32:21;40.98;36.91;44.27;;
4048;Laerm;2038;51.728;6.674;2022-09-29T02:34:51;46.44;38.81;61.69;;
4048;Laerm;2038;51.728;6.674;2022-09-29T02:37:47;54.31;37.32;74.26;;
4048;Laerm;2038;51.728;6.674;2022-09-29T02:44:11;52.05;36.69;72.28;;
4048;Laerm;2038;51.728;6.674;2022-09-29T02:50:14;52.19;37.32;66.70;;
4048;Laerm;2038;51.728;6.674;2022-09-29T02:58:38;55.72;38.52;70.34;;
4048;Laerm;2038;51.728;6.674;2022-09-29T03:01:08;49.89;38.67;67.72;;
4048;Laerm;2038;51.728;6.674;2022-09-29T03:03:34;47.90;37.70;66.55;;
4048;Laerm;2038;51.728;6.674;2022-09-29T03:06:00;41.57;37.70;46.23;;
4048;Laerm;2038;51.728;6.674;2022-09-29T03:08:27;51.63;37.70;67.64;;
4048;Laerm;2038;51.728;6.674;2022-09-29T03:10:53;41.54;38.52;44.27;;
4048;Laerm;2038;51.728;6.674;2022-09-29T03:13:19;50.88;39.46;66.36;;
4048;Laerm;2038;51.728;6.674;2022-09-29T03:15:46;41.84;38.81;44.39;;
4048;Laerm;2038;51.728;6.674;2022-09-29T03:18:11;41.96;38.37;44.31;;
4048;Laerm;2038;51.728;6.674;2022-09-29T03:20:37;47.95;39.21;65.46;;
4048;Laerm;2038;51.728;6.674;2022-09-29T03:23:03;47.28;36.91;62.85;;
4048;Laerm;2038;51.728;6.674;2022-09-29T03:25:29;52.71;39.81;69.55;;
4048;Laerm;2038;51.728;6.674;2022-09-29T03:27:55;52.16;38.67;66.33;;
4048;Laerm;2038;51.728;6.674;2022-09-29T03:30:20;42.03;39.34;45.48;;
4048;Laerm;2038;51.728;6.674;2022-09-29T03:32:48;49.71;38.05;67.61;;
4048;Laerm;2038;51.728;6.674;2022-09-29T03:35:14;47.59;39.08;64.16;;
4048;Laerm;2038;51.728;6.674;2022-09-29T03:37:40;49.65;39.46;64.54;;
4048;Laerm;2038;51.728;6.674;2022-09-29T03:40:07;54.88;39.58;69.53;;
4048;Laerm;2038;51.728;6.674;2022-09-29T03:42:33;47.14;38.95;64.94;;
4048;Laerm;2038;51.728;6.674;2022-09-29T03:44:59;49.84;39.34;63.52;;
4048;Laerm;2038;51.728;6.674;2022-09-29T03:47:25;57.01;40.33;75.30;;
4048;Laerm;2038;51.728;6.674;2022-09-29T03:49:51;55.31;40.89;71.17;;
4048;Laerm;2038;51.728;6.674;2022-09-29T03:52:17;52.70;40.03;68.21;;
4048;Laerm;2038;51.728;6.674;2022-09-29T03:54:44;54.80;40.03;70.58;;
4048;Laerm;2038;51.728;6.674;2022-09-29T03:57:13;48.38;40.33;62.87;;
4048;Laerm;2038;51.728;6.674;2022-09-29T03:59:39;51.58;41.06;65.63;;
4048;Laerm;2038;51.728;6.674;2022-09-29T04:02:05;50.70;39.58;65.76;;
4048;Laerm;2038;51.728;6.674;2022-09-29T04:04:31;42.73;39.58;47.51;;
4048;Laerm;2038;51.728;6.674;2022-09-29T04:06:57;52.77;39.92;67.03;;
4048;Laerm;2038;51.728;6.674;2022-09-29T04:09:22;49.02;39.92;66.66;;
4048;Laerm;2038;51.728;6.674;2022-09-29T04:11:48;55.81;40.13;72.29;;
4048;Laerm;2038;51.728;6.674;2022-09-29T04:14:16;52.73;39.81;67.14;;
4048;Laerm;2038;51.728;6.674;2022-09-29T04:16:42;55.98;40.89;70.50;;
4048;Laerm;2038;51.728;6.674;2022-09-29T04:19:08;54.88;40.89;68.34;;
4048;Laerm;2038;51.728;6.674;2022-09-29T04:21:33;53.95;41.46;67.89;;
4048;Laerm;2038;51.728;6.674;2022-09-29T04:23:59;52.33;40.53;63.78;;
4048;Laerm;2038;51.728;6.674;2022-09-29T04:26:28;52.48;40.03;65.97;;
4048;Laerm;2038;51.728;6.674;2022-09-29T04:28:55;53.55;39.58;72.34;;
4048;Laerm;2038;51.728;6.674;2022-09-29T04:31:21;53.45;40.43;65.79;;
4048;Laerm;2038;51.728;6.674;2022-09-29T04:33:47;55.30;40.80;68.21;;
4048;Laerm;2038;51.728;6.674;2022-09-29T04:36:13;55.02;40.80;69.11;;
4048;Laerm;2038;51.728;6.674;2022-09-29T04:38:39;59.07;41.22;75.99;;
4048;Laerm;2038;51.728;6.674;2022-09-29T04:41:06;58.19;40.80;74.78;;
4048;Laerm;2038;51.728;6.674;2022-09-29T04:43:32;57.04;41.22;71.29;;
4048;Laerm;2038;51.728;6.674;2022-09-29T04:46:06;57.27;41.14;71.03;;
4048;Laerm;2038;51.728;6.674;2022-09-29T04:48:34;53.59;40.62;69.19;;
4048;Laerm;2038;51.728;6.674;2022-09-29T04:51:01;51.10;40.33;66.03;;
4048;Laerm;2038;51.728;6.674;2022-09-29T04:53:27;56.55;40.53;69.66;;
4048;Laerm;2038;51.728;6.674;2022-09-29T04:55:54;50.61;40.53;63.47;;
4048;Laerm;2038;51.728;6.674;2022-09-29T04:58:20;56.45;41.46;68.92;;
4048;Laerm;2038;51.728;6.674;2022-09-29T05:00:46;54.98;41.06;65.24;;
4048;Laerm;2038;51.728;6.674;2022-09-29T05:03:13;59.10;41.38;73.80;;
4048;Laerm;2038;51.728;6.674;2022-09-29T05:05:39;57.26;42.03;68.74;;
4048;Laerm;2038;51.728;6.674;2022-09-29T05:08:05;56.03;41.46;68.50;;
4048;Laerm;2038;51.728;6.674;2022-09-29T05:10:32;55.80;41.68;67.57;;
4048;Laerm;2038;51.728;6.674;2022-09-29T05:12:58;53.91;40.98;70.41;;
4048;Laerm;2038;51.728;6.674;2022-09-29T05:15:24;56.84;42.13;72.90;;
4048;Laerm;2038;51.728;6.674;2022-09-29T05:17:50;53.93;41.53;66.65;;
4048;Laerm;2038;51.728;6.674;2022-09-29T05:20:17;54.38;41.30;68.02;;
4048;Laerm;2038;51.728;6.674;2022-09-29T05:22:43;54.01;41.61;66.11;;
4048;Laerm;2038;51.728;6.674;2022-09-29T05:25:09;54.42;41.53;66.40;;
4048;Laerm;2038;51.728;6.674;2022-09-29T05:27:36;50.67;39.99;64.18;;
4048;Laerm;2038;51.728;6.674;2022-09-29T05:30:04;54.37;41.06;66.23;;
4048;Laerm;2038;51.728;6.674;2022-09-29T05:32:30;59.20;43.34;77.12;;
4048;Laerm;2038;51.728;6.674;2022-09-29T05:34:58;57.87;41.82;73.53;;
4048;Laerm;2038;51.728;6.674;2022-09-29T05:37:25;53.97;41.46;66.12;;
4048;Laerm;2038;51.728;6.674;2022-09-29T05:39:51;57.31;41.61;69.10;;
4048;Laerm;2038;51.728;6.674;2022-09-29T05:42:17;58.60;42.82;69.55;;
4048;Laerm;2038;51.728;6.674;2022-09-29T05:44:43;60.43;42.65;73.55;;
4048;Laerm;2038;51.728;6.674;2022-09-29T05:47:09;55.41;42.19;66.48;;
4048;Laerm;2038;51.728;6.674;2022-09-29T05:49:35;57.36;42.41;71.21;;
4048;Laerm;2038;51.728;6.674;2022-09-29T05:52:02;55.56;40.71;65.25;;
4048;Laerm;2038;51.728;6.674;2022-09-29T05:54:28;59.82;43.29;72.50;;
4048;Laerm;2038;51.728;6.674;2022-09-29T05:56:54;56.44;41.53;67.58;;
4048;Laerm;2038;51.728;6.674;2022-09-29T05:59:21;55.25;41.61;67.89;;
4048;Laerm;2038;51.728;6.674;2022-09-29T06:01:47;55.88;40.62;69.17;;
4048;Laerm;2038;51.728;6.674;2022-09-29T06:04:14;52.57;40.23;63.14;;
4048;Laerm;2038;51.728;6.674;2022-09-29T06:06:42;52.50;39.58;67.48;;
4048;Laerm;2038;51.728;6.674;2022-09-29T06:09:08;58.02;42.59;74.13;;
4048;Laerm;2038;51.728;6.674;2022-09-29T06:11:34;58.14;41.14;75.61;;
4048;Laerm;2038;51.728;6.674;2022-09-29T06:14:01;53.03;40.80;66.48;;
4048;Laerm;2038;51.728;6.674;2022-09-29T06:16:30;55.14;40.89;68.56;;
4048;Laerm;2038;51.728;6.674;2022-09-29T06:18:59;56.98;40.43;70.72;;
4048;Laerm;2038;51.728;6.674;2022-09-29T06:21:28;55.98;40.62;67.92;;
4048;Laerm;2038;51.728;6.674;2022-09-29T06:23:56;54.96;40.23;71.56;;
4048;Laerm;2038;51.728;6.674;2022-09-29T06:26:25;57.70;42.76;70.45;;
4048;Laerm;2038;51.728;6.674;2022-09-29T06:28:53;53.86;38.37;66.12;;
4048;Laerm;2038;51.728;6.674;2022-09-29T06:31:23;50.92;40.03;72.48;;
4048;Laerm;2038;51.728;6.674;2022-09-29T06:33:50;57.93;39.70;72.80;;
4048;Laerm;2038;51.728;6.674;2022-09-29T06:36:34;51.97;39.92;66.39;;
4048;Laerm;2038;51.728;6.674;2022-09-29T06:39:19;58.79;39.70;79.16;;
4048;Laerm;2038;51.728;6.674;2022-09-29T06:41:46;53.64;39.46;66.37;;
4048;Laerm;2038;51.728;6.674;2022-09-29T06:44:25;56.38;39.89;71.49;;
4048;Laerm;2038;51.728;6.674;2022-09-29T06:46:53;55.48;40.89;67.92;;
4048;Laerm;2038;51.728;6.674;2022-09-29T06:49:20;54.13;40.98;66.38;;
4048;Laerm;2038;51.728;6.674;2022-09-29T06:51:47;50.36;38.95;64.94;;
4048;Laerm;2038;51.728;6.674;2022-09-29T06:54:20;55.34;41.30;66.52;;
4048;Laerm;2038;51.728;6.674;2022-09-29T06:56:51;52.02;40.23;62.79;;
4048;Laerm;2038;51.728;6.674;2022-09-29T06:59:18;56.40;40.71;70.67;;
4048;Laerm;2038;51.728;6.674;2022-09-29T07:01:44;50.00;39.46;65.19;;
4048;Laerm;2038;51.728;6.674;2022-09-29T07:04:14;56.66;39.81;69.80;;
4048;Laerm;2038;51.728;6.674;2022-09-29T07:06:41;56.54;40.33;69.57;;
4048;Laerm;2038;51.728;6.674;2022-09-29T07:09:07;52.77;40.43;65.89;;
4048;Laerm;2038;51.728;6.674;2022-09-29T07:11:49;53.81;39.81;65.82;;
4048;Laerm;2038;51.728;6.674;2022-09-29T07:14:18;51.74;39.46;64.57;;
4048;Laerm;2038;51.728;6.674;2022-09-29T07:16:45;54.00;40.53;65.64;;
4048;Laerm;2038;51.728;6.674;2022-09-29T07:19:16;55.54;39.58;71.12;;
4048;Laerm;2038;51.728;6.674;2022-09-29T07:21:43;58.55;39.70;70.59;;
4048;Laerm;2038;51.728;6.674;2022-09-29T07:24:09;54.06;39.46;66.44;;
4048;Laerm;2038;51.728;6.674;2022-09-29T07:26:35;59.25;41.53;73.83;;
4048;Laerm;2038;51.728;6.674;2022-09-29T07:29:02;53.42;40.13;69.60;;
4048;Laerm;2038;51.728;6.674;2022-09-29T07:31:28;57.04;41.82;68.24;;
4048;Laerm;2038;51.728;6.674;2022-09-29T07:33:56;61.23;41.61;96.97;;
4048;Laerm;2038;51.728;6.674;2022-09-29T07:36:22;50.23;47.48;55.61;;
4048;Laerm;2038;51.728;6.674;2022-09-29T07:38:51;48.10;46.28;50.42;;
4048;Laerm;2038;51.728;6.674;2022-09-29T07:41:21;47.57;45.99;50.63;;
4048;Laerm;2038;51.728;6.674;2022-09-29T07:43:48;47.35;45.51;49.64;;
4048;Laerm;2038;51.728;6.674;2022-09-29T07:46:14;47.39;45.60;49.58;;
4048;Laerm;2038;51.728;6.674;2022-09-29T07:48:40;50.38;46.28;72.65;;
4048;Laerm;2038;51.728;6.674;2022-09-29T07:51:16;50.11;47.93;67.55;;
4048;Laerm;2038;51.728;6.674;2022-09-29T07:53:44;49.56;47.18;52.26;;
4048;Laerm;2038;51.728;6.674;2022-09-29T07:56:14;49.45;47.40;51.36;;
4048;Laerm;2038;51.728;6.674;2022-09-29T07:58:41;49.42;47.44;51.51;;
4048;Laerm;2038;51.728;6.674;2022-09-29T08:01:10;49.46;47.52;51.47;;
4048;Laerm;2038;51.728;6.674;2022-09-29T08:03:41;49.42;47.42;51.67;;
4048;Laerm;2038;51.728;6.674;2022-09-29T08:06:10;49.41;47.30;51.36;;
4048;Laerm;2038;51.728;6.674;2022-09-29T08:08:40;49.40;47.57;51.19;;
4048;Laerm;2038;51.728;6.674;2022-09-29T08:11:16;49.33;47.36;51.55;;
4048;Laerm;2038;51.728;6.674;2022-09-29T08:13:43;49.31;47.46;51.47;;
4048;Laerm;2038;51.728;6.674;2022-09-29T08:16:13;49.30;47.18;50.90;;
4048;Laerm;2038;51.728;6.674;2022-09-29T08:18:41;49.38;47.36;51.36;;
4048;Laerm;2038;51.728;6.674;2022-09-29T08:21:10;49.43;47.48;51.39;;
4048;Laerm;2038;51.728;6.674;2022-09-29T08:23:41;49.28;47.34;51.26;;
4048;Laerm;2038;51.728;6.674;2022-09-29T08:26:15;49.30;47.30;51.11;;
4048;Laerm;2038;51.728;6.674;2022-09-29T08:28:43;49.24;47.40;51.28;;
4048;Laerm;2038;51.728;6.674;2022-09-29T08:31:17;49.23;47.57;51.52;;
4048;Laerm;2038;51.728;6.674;2022-09-29T08:33:49;49.94;48.00;52.25;;
4048;Laerm;2038;51.728;6.674;2022-09-29T08:36:18;50.16;48.21;52.15;;
4048;Laerm;2038;51.728;6.674;2022-09-29T08:38:48;50.17;48.12;52.11;;
4048;Laerm;2038;51.728;6.674;2022-09-29T08:44:50;50.18;48.20;52.35;;
4048;Laerm;2038;51.728;6.674;2022-09-29T08:47:47;50.16;48.05;52.20;;
4048;Laerm;2038;51.728;6.674;2022-09-29T08:50:35;50.12;48.37;52.50;;
4048;Laerm;2038;51.728;6.674;2022-09-29T08:53:13;50.09;48.12;52.09;;
4048;Laerm;2038;51.728;6.674;2022-09-29T08:56:02;50.10;48.05;52.21;;
4048;Laerm;2038;51.728;6.674;2022-09-29T08:58:30;50.09;48.21;52.34;;
4048;Laerm;2038;51.728;6.674;2022-09-29T09:01:33;50.11;48.25;51.94;;
4048;Laerm;2038;51.728;6.674;2022-09-29T09:07:44;50.15;48.16;52.15;;
4048;Laerm;2038;51.728;6.674;2022-09-29T09:19:02;50.09;48.26;52.12;;
4048;Laerm;2038;51.728;6.674;2022-09-29T09:21:46;50.05;48.08;52.72;;
4048;Laerm;2038;51.728;6.674;2022-09-29T09:26:59;50.01;48.00;51.99;;
4048;Laerm;2038;51.728;6.674;2022-09-29T09:29:34;50.01;48.21;52.02;;
4048;Laerm;2038;51.728;6.674;2022-09-29T09:37:42;49.97;48.15;51.74;;
4048;Laerm;2038;51.728;6.674;2022-09-29T09:40:24;49.95;48.25;51.91;;
4048;Laerm;2038;51.728;6.674;2022-09-29T09:43:06;49.94;47.88;51.98;;
4048;Laerm;2038;51.728;6.674;2022-09-29T09:46:16;49.91;48.21;52.05;;
4048;Laerm;2038;51.728;6.674;2022-09-29T09:49:18;49.92;47.65;51.65;;
4048;Laerm;2038;51.728;6.674;2022-09-29T09:52:10;49.94;48.02;52.20;;
4048;Laerm;2038;51.728;6.674;2022-09-29T09:54:47;49.93;48.15;51.61;;
4048;Laerm;2038;51.728;6.674;2022-09-29T10:00:10;49.87;47.84;51.93;;
4048;Laerm;2038;51.728;6.674;2022-09-29T10:03:01;49.89;47.83;51.76;;
4048;Laerm;2038;51.728;6.674;2022-09-29T10:05:43;49.86;47.88;51.88;;
4048;Laerm;2038;51.728;6.674;2022-09-29T10:08:33;49.90;47.74;51.97;;
4048;Laerm;2038;51.728;6.674;2022-09-29T10:11:27;49.89;48.15;51.84;;
4048;Laerm;2038;51.728;6.674;2022-09-29T10:17:10;49.76;47.81;51.61;;
4048;Laerm;2038;51.728;6.674;2022-09-29T10:20:02;49.65;47.86;51.73;;
4048;Laerm;2038;51.728;6.674;2022-09-29T10:22:31;49.65;47.65;51.79;;
4048;Laerm;2038;51.728;6.674;2022-09-29T10:25:18;49.66;47.68;51.40;;
4048;Laerm;2038;51.728;6.674;2022-09-29T10:27:52;49.79;47.96;51.82;;
4048;Laerm;2038;51.728;6.674;2022-09-29T10:30:33;49.86;48.08;51.99;;
4048;Laerm;2038;51.728;6.674;2022-09-29T10:33:03;49.81;47.74;51.74;;
4048;Laerm;2038;51.728;6.674;2022-09-29T10:35:39;49.76;47.95;51.75;;
4048;Laerm;2038;51.728;6.674;2022-09-29T10:38:22;49.70;47.77;51.56;;
4048;Laerm;2038;51.728;6.674;2022-09-29T10:40:58;49.66;47.95;52.25;;
4048;Laerm;2038;51.728;6.674;2022-09-29T10:45:59;49.60;47.50;51.63;;
4048;Laerm;2038;51.728;6.674;2022-09-29T10:48:26;49.46;47.63;51.44;;
4048;Laerm;2038;51.728;6.674;2022-09-29T10:51:04;49.45;47.67;51.50;;
4048;Laerm;2038;51.728;6.674;2022-09-29T10:53:39;49.56;47.83;51.53;;
4048;Laerm;2038;51.728;6.674;2022-09-29T10:56:19;49.74;47.84;51.37;;
4048;Laerm;2038;51.728;6.674;2022-09-29T10:58:59;49.73;47.70;51.91;;
4048;Laerm;2038;51.728;6.674;2022-09-29T11:01:30;49.66;47.59;51.67;;
4048;Laerm;2038;51.728;6.674;2022-09-29T11:04:03;49.57;47.81;51.57;;
4048;Laerm;2038;51.728;6.674;2022-09-29T11:06:34;49.62;47.77;51.49;;
4048;Laerm;2038;51.728;6.674;2022-09-29T11:09:25;49.40;47.54;51.13;;
4048;Laerm;2038;51.728;6.674;2022-09-29T11:11:55;49.38;47.28;51.05;;
4048;Laerm;2038;51.728;6.674;2022-09-29T11:19:54;49.44;47.52;51.59;;
4048;Laerm;2038;51.728;6.674;2022-09-29T11:22:54;49.53;47.76;51.37;;
4048;Laerm;2038;51.728;6.674;2022-09-29T11:28:32;49.30;47.34;51.46;;
4048;Laerm;2038;51.728;6.674;2022-09-29T11:31:56;49.17;47.30;50.87;;
4048;Laerm;2038;51.728;6.674;2022-09-29T11:34:51;48.29;46.30;50.33;;
4048;Laerm;2038;51.728;6.674;2022-09-29T11:40:40;48.16;46.13;49.93;;
4048;Laerm;2038;51.728;6.674;2022-09-29T11:43:46;48.18;46.30;50.09;;
4048;Laerm;2038;51.728;6.674;2022-09-29T11:46:40;48.01;45.66;49.91;;
4048;Laerm;2038;51.728;6.674;2022-09-29T12:02:23;47.01;45.39;48.90;;
4048;Laerm;2038;51.728;6.674;2022-09-29T12:08:31;47.41;45.57;49.02;;
4048;Laerm;2038;51.728;6.674;2022-09-29T12:11:33;47.23;45.27;48.98;;
4048;Laerm;2038;51.728;6.674;2022-09-29T12:14:18;47.17;45.27;49.06;;
4048;Laerm;2038;51.728;6.674;2022-09-29T12:17:04;47.55;45.91;49.44;;
4048;Laerm;2038;51.728;6.674;2022-09-29T12:19:38;47.60;45.51;49.72;;
4048;Laerm;2038;51.728;6.674;2022-09-29T12:22:12;47.18;45.31;49.00;;
4048;Laerm;2038;51.728;6.674;2022-09-29T12:24:53;46.66;44.87;48.42;;
4048;Laerm;2038;51.728;6.674;2022-09-29T12:27:39;46.94;45.20;48.73;;
4048;Laerm;2038;51.728;6.674;2022-09-29T12:30:25;46.35;44.27;48.60;;
4048;Laerm;2038;51.728;6.674;2022-09-29T12:36:15;45.95;44.39;47.91;;
4048;Laerm;2038;51.728;6.674;2022-09-29T12:41:59;45.83;44.07;47.88;;
4048;Laerm;2038;51.728;6.674;2022-09-29T12:44:33;45.53;43.99;47.18;;
4048;Laerm;2038;51.728;6.674;2022-09-29T12:47:19;45.30;43.63;50.22;;
4048;Laerm;2038;51.728;6.674;2022-09-29T12:53:08;45.06;43.49;46.50;;
4048;Laerm;2038;51.728;6.674;2022-09-29T12:55:53;45.18;43.44;47.38;;
4048;Laerm;2038;51.728;6.674;2022-09-29T13:01:34;44.70;43.28;46.18;;
4048;Laerm;2038;51.728;6.674;2022-09-29T13:07:12;44.66;42.88;46.30;;
4048;Laerm;2038;51.728;6.674;2022-09-29T13:13:12;44.86;43.14;47.38;;
4048;Laerm;2038;51.728;6.674;2022-09-29T13:22:45;44.27;42.93;47.32;;
4048;Laerm;2038;51.728;6.674;2022-09-29T13:25:47;44.61;42.74;53.07;;
4048;Laerm;2038;51.728;6.674;2022-09-29T13:28:32;44.48;42.93;51.70;;
4048;Laerm;2038;51.728;6.674;2022-09-29T13:31:05;44.02;42.53;48.32;;
4048;Laerm;2038;51.728;6.674;2022-09-29T13:33:34;44.17;42.71;46.10;;
4048;Laerm;2038;51.728;6.674;2022-09-29T13:36:01;44.24;42.65;45.89;;
4048;Laerm;2038;51.728;6.674;2022-09-29T13:38:35;44.16;42.53;47.72;;
4048;Laerm;2038;51.728;6.674;2022-09-29T13:41:36;44.17;42.71;52.36;;
4048;Laerm;2038;51.728;6.674;2022-09-29T13:44:19;43.90;42.41;48.34;;
4048;Laerm;2038;51.728;6.674;2022-09-29T13:46:47;44.05;42.35;49.91;;
4048;Laerm;2038;51.728;6.674;2022-09-29T13:49:23;43.73;42.16;48.29;;
4048;Laerm;2038;51.728;6.674;2022-09-29T13:51:59;43.68;42.09;47.57;;
4048;Laerm;2038;51.728;6.674;2022-09-29T13:54:42;43.54;41.96;46.55;;
4048;Laerm;2038;51.728;6.674;2022-09-29T14:08:10;44.00;42.47;49.00;;
4048;Laerm;2038;51.728;6.674;2022-09-29T14:10:45;44.04;42.22;51.08;;
4048;Laerm;2038;51.728;6.674;2022-09-29T14:13:21;44.34;42.22;50.93;;
4048;Laerm;2038;51.728;6.674;2022-09-29T14:18:59;44.04;42.16;52.60;;
4048;Laerm;2038;51.728;6.674;2022-09-29T14:21:54;44.25;42.41;59.14;;
4048;Laerm;2038;51.728;6.674;2022-09-29T14:30:36;44.51;42.29;52.00;;
4048;Laerm;2038;51.728;6.674;2022-09-29T14:33:36;44.56;42.47;50.93;;
4048;Laerm;2038;51.728;6.674;2022-09-29T14:36:17;46.98;42.41;58.04;;
4048;Laerm;2038;51.728;6.674;2022-09-29T14:38:48;45.30;42.41;55.22;;
4048;Laerm;2038;51.728;6.674;2022-09-29T14:41:30;47.19;42.16;56.01;;
4048;Laerm;2038;51.728;6.674;2022-09-29T14:44:25;47.43;42.71;63.40;;
4048;Laerm;2038;51.728;6.674;2022-09-29T14:47:14;45.82;42.47;57.46;;
4048;Laerm;2038;51.728;6.674;2022-09-29T14:50:20;46.85;42.53;57.20;;
4048;Laerm;2038;51.728;6.674;2022-09-29T14:53:36;45.93;42.22;56.81;;
4048;Laerm;2038;51.728;6.674;2022-09-29T15:02:14;47.44;42.22;59.50;;
4048;Laerm;2038;51.728;6.674;2022-09-29T15:04:43;47.40;42.35;59.56;;
4048;Laerm;2038;51.728;6.674;2022-09-29T15:07:20;46.16;42.53;54.87;;
4048;Laerm;2038;51.728;6.674;2022-09-29T15:09:51;48.00;42.76;56.92;;
4048;Laerm;2038;51.728;6.674;2022-09-29T15:12:26;45.39;42.41;54.11;;
4048;Laerm;2038;51.728;6.674;2022-09-29T15:14:54;49.95;42.35;61.29;;
4048;Laerm;2038;51.728;6.674;2022-09-29T15:17:53;48.17;42.47;57.40;;
4048;Laerm;2038;51.728;6.674;2022-09-29T15:20:52;46.72;42.47;54.24;;
4048;Laerm;2038;51.728;6.674;2022-09-29T15:24:01;48.03;42.59;57.84;;
4048;Laerm;2038;51.728;6.674;2022-09-29T15:26:33;47.22;42.53;55.13;;
4048;Laerm;2038;51.728;6.674;2022-09-29T15:29:04;49.28;42.35;61.96;;
4048;Laerm;2038;51.728;6.674;2022-09-29T15:31:33;46.98;42.47;58.96;;
4048;Laerm;2038;51.728;6.674;2022-09-29T15:34:01;46.05;42.35;53.57;;
4048;Laerm;2038;51.728;6.674;2022-09-29T15:36:38;47.11;42.71;55.39;;
4048;Laerm;2038;51.728;6.674;2022-09-29T15:39:38;46.89;42.71;56.52;;
4048;Laerm;2038;51.728;6.674;2022-09-29T15:42:17;47.47;42.88;58.24;;
4048;Laerm;2038;51.728;6.674;2022-09-29T15:44:58;45.44;42.22;53.99;;
4048;Laerm;2038;51.728;6.674;2022-09-29T15:47:34;47.04;42.47;58.33;;
4048;Laerm;2038;51.728;6.674;2022-09-29T15:50:22;47.53;42.47;59.94;;
4048;Laerm;2038;51.728;6.674;2022-09-29T15:52:49;47.09;42.41;58.41;;
4048;Laerm;2038;51.728;6.674;2022-09-29T15:55:23;47.16;42.29;58.09;;
4048;Laerm;2038;51.728;6.674;2022-09-29T15:57:51;50.67;42.65;63.96;;
4048;Laerm;2038;51.728;6.674;2022-09-29T16:03:38;46.07;42.35;54.20;;
4048;Laerm;2038;51.728;6.674;2022-09-29T16:06:24;47.43;42.41;58.74;;
4048;Laerm;2038;51.728;6.674;2022-09-29T16:09:01;47.70;42.35;57.52;;
4048;Laerm;2038;51.728;6.674;2022-09-29T16:11:37;46.79;42.35;55.79;;
4048;Laerm;2038;51.728;6.674;2022-09-29T16:14:19;47.02;42.53;57.27;;
4048;Laerm;2038;51.728;6.674;2022-09-29T16:16:50;45.88;42.36;54.50;;
4048;Laerm;2038;51.728;6.674;2022-09-29T16:19:30;46.50;42.53;54.22;;
4048;Laerm;2038;51.728;6.674;2022-09-29T16:22:04;46.18;42.35;57.34;;
4048;Laerm;2038;51.728;6.674;2022-09-29T16:24:36;46.42;42.53;53.62;;
4048;Laerm;2038;51.728;6.674;2022-09-29T16:27:43;46.45;42.41;56.24;;
4048;Laerm;2038;51.728;6.674;2022-09-29T16:30:28;46.31;42.29;56.22;;
4048;Laerm;2038;51.728;6.674;2022-09-29T16:33:12;45.45;42.16;55.98;;
4048;Laerm;2038;51.728;6.674;2022-09-29T16:36:04;46.88;42.22;57.12;;
4048;Laerm;2038;51.728;6.674;2022-09-29T16:38:43;46.17;42.29;54.86;;
4048;Laerm;2038;51.728;6.674;2022-09-29T16:41:28;46.91;42.35;57.77;;
4048;Laerm;2038;51.728;6.674;2022-09-29T16:44:23;45.80;42.35;54.77;;
4048;Laerm;2038;51.728;6.674;2022-09-29T16:47:18;46.88;42.42;56.84;;
4048;Laerm;2038;51.728;6.674;2022-09-29T16:50:13;45.34;42.22;55.75;;
4048;Laerm;2038;51.728;6.674;2022-09-29T16:52:49;44.80;42.41;54.22;;
4048;Laerm;2038;51.728;6.674;2022-09-29T16:57:58;44.84;42.22;52.41;;
4048;Laerm;2038;51.728;6.674;2022-09-29T17:00:25;46.17;42.29;57.46;;
4048;Laerm;2038;51.728;6.674;2022-09-29T17:02:56;45.03;42.22;55.17;;
4048;Laerm;2038;51.728;6.674;2022-09-29T17:05:36;44.91;42.41;52.04;;
4048;Laerm;2038;51.728;6.674;2022-09-29T17:08:21;45.00;42.35;55.16;;
4048;Laerm;2038;51.728;6.674;2022-09-29T17:10:52;45.24;42.53;59.18;;
4048;Laerm;2038;51.728;6.674;2022-09-29T17:13:20;45.26;42.59;60.85;;
4048;Laerm;2038;51.728;6.674;2022-09-29T17:15:50;44.51;42.41;52.39;;
4048;Laerm;2038;51.728;6.674;2022-09-29T17:18:19;45.30;42.41;54.62;;
4048;Laerm;2038;51.728;6.674;2022-09-29T17:20:45;44.90;42.35;53.32;;
4048;Laerm;2038;51.728;6.674;2022-09-29T17:23:12;44.19;42.29;51.88;;
4048;Laerm;2038;51.728;6.674;2022-09-29T17:25:43;44.91;42.41;51.56;;
4048;Laerm;2038;51.728;6.674;2022-09-29T17:28:21;44.76;42.47;53.25;;